Time;durP1;ratioP1;P1;durP2;ratioP2;P2;SDS_P1;SDS_P2;PMS_P1;PMS_P2;Temp;Humidity;BMP_temperature;BMP_pressure;BME280_temperature;BME280_humidity;BME280_pressure;Samples;Min_cycle;Max_cycle;Signal;HPM_P1;HPM_P2
2021/08/01 00:02:16;;;;;;;13.18;11.65;;;17.90;99.90;;;;;;4927377;29;20511;-73
2021/08/01 00:04:42;;;;;;;12.75;11.43;;;17.80;99.90;;;;;;4929631;29;20699;-74
2021/08/01 00:07:08;;;;;;;15.63;12.23;;;17.80;99.90;;;;;;4928093;29;20990;-74
2021/08/01 00:09:34;;;;;;;16.58;11.68;;;17.80;99.90;;;;;;4927768;29;20783;-74
2021/08/01 00:12:00;;;;;;;13.48;11.80;;;17.80;99.90;;;;;;4930830;29;20074;-73
2021/08/01 00:14:25;;;;;;;18.52;12.20;;;17.80;99.90;;;;;;4923220;29;20123;-75
2021/08/01 00:16:51;;;;;;;12.65;11.45;;;17.80;99.90;;;;;;4928081;29;20023;-74
2021/08/01 00:19:17;;;;;;;20.27;12.82;;;17.70;99.90;;;;;;4927017;29;20031;-74
2021/08/01 00:21:43;;;;;;;14.35;12.85;;;17.70;99.90;;;;;;4928480;29;20062;-72
2021/08/01 00:24:08;;;;;;;15.35;11.98;;;17.60;99.90;;;;;;4927213;29;20035;-72
2021/08/01 00:26:34;;;;;;;13.80;12.38;;;17.60;99.90;;;;;;4927412;29;20507;-74
2021/08/01 00:29:00;;;;;;;14.23;11.88;;;17.60;99.90;;;;;;4931573;29;20019;-75
2021/08/01 00:31:25;;;;;;;15.18;12.02;;;17.50;99.90;;;;;;4921427;29;20035;-73
2021/08/01 00:33:51;;;;;;;16.27;9.93;;;17.40;99.90;;;;;;4931749;29;20459;-73
2021/08/01 00:36:17;;;;;;;13.05;9.55;;;17.40;99.90;;;;;;4928262;29;20480;-75
2021/08/01 00:38:43;;;;;;;9.52;8.55;;;17.40;99.90;;;;;;4926189;29;20369;-73
2021/08/01 00:41:08;;;;;;;11.60;10.32;;;17.40;99.90;;;;;;4927587;29;20066;-75
2021/08/01 00:43:34;;;;;;;11.40;10.30;;;17.40;99.90;;;;;;4933705;29;20519;-75
2021/08/01 00:46:00;;;;;;;12.85;11.45;;;17.30;99.90;;;;;;4930816;29;20118;-75
2021/08/01 00:48:26;;;;;;;9.82;8.82;;;17.30;99.90;;;;;;4926287;29;20462;-73
2021/08/01 00:50:53;;;;;;;11.82;10.07;;;17.30;99.90;;;;;;4926842;29;20067;-75
2021/08/01 00:53:19;;;;;;;13.57;11.65;;;17.20;99.90;;;;;;4921196;29;20024;-74
2021/08/01 00:55:45;;;;;;;13.63;11.75;;;17.20;99.90;;;;;;4927397;29;20031;-76
2021/08/01 00:58:11;;;;;;;12.27;10.93;;;17.20;99.90;;;;;;4929049;29;20024;-75
2021/08/01 01:01:05;;;;;;;14.52;11.25;;;17.20;99.90;;;;;;4926619;29;20146;-74
2021/08/01 01:04:23;;;;;;;11.95;10.70;;;17.20;99.90;;;;;;4928522;29;20403;-76
2021/08/01 01:07:14;;;;;;;13.32;11.68;;;17.20;99.90;;;;;;4912417;29;20515;-74
2021/08/01 01:09:46;;;;;;;13.98;11.57;;;17.10;99.90;;;;;;4930814;29;20119;-73
2021/08/01 01:12:15;;;;;;;14.45;11.23;;;17.00;99.90;;;;;;4928929;29;20106;-73
2021/08/01 01:14:45;;;;;;;11.55;10.32;;;16.90;99.90;;;;;;4931255;29;20027;-76
2021/08/01 01:17:14;;;;;;;11.10;10.00;;;16.90;99.90;;;;;;4928519;29;20040;-76
2021/08/01 01:19:58;;;;;;;13.48;10.70;;;16.80;99.90;;;;;;4929687;29;20024;-74
2021/08/01 01:22:40;;;;;;;12.70;11.35;;;16.70;99.90;;;;;;4930245;29;20110;-76
2021/08/01 01:25:14;;;;;;;18.08;13.13;;;16.80;99.90;;;;;;4934793;29;20032;-76
2021/08/01 01:27:46;;;;;;;14.48;12.35;;;16.80;99.90;;;;;;4933614;29;20058;-76
2021/08/01 01:30:13;;;;;;;14.60;12.43;;;16.80;99.90;;;;;;4928979;29;20480;-76
2021/08/01 01:32:53;;;;;;;16.92;12.18;;;16.80;99.90;;;;;;4931085;29;20027;-74
2021/08/01 01:35:20;;;;;;;16.25;12.43;;;16.80;99.90;;;;;;4932998;28;20186;-74
2021/08/01 01:37:50;;;;;;;11.88;10.60;;;16.80;99.90;;;;;;4933821;29;20024;-75
2021/08/01 01:40:19;;;;;;;14.63;12.65;;;16.90;99.90;;;;;;4928862;29;20488;-74
2021/08/01 01:42:48;;;;;;;11.93;10.57;;;17.00;99.90;;;;;;4931235;29;20051;-75
2021/08/01 01:45:18;;;;;;;12.68;11.15;;;17.00;99.90;;;;;;4934118;29;20024;-73
2021/08/01 01:47:47;;;;;;;12.35;11.00;;;16.90;99.90;;;;;;4924768;29;20123;-73
2021/08/01 01:50:16;;;;;;;14.60;11.65;;;16.90;99.90;;;;;;4932286;29;20048;-74
2021/08/01 01:52:47;;;;;;;13.30;11.90;;;16.90;99.90;;;;;;4924515;29;20024;-73
2021/08/01 01:55:20;;;;;;;11.30;10.13;;;16.90;99.90;;;;;;4936201;29;20038;-76
2021/08/01 01:57:47;;;;;;;13.02;11.40;;;16.90;99.90;;;;;;4933013;29;20514;-76
2021/08/01 02:00:14;;;;;;;13.40;11.60;;;16.90;99.90;;;;;;4930430;29;20504;-74
2021/08/01 02:02:40;;;;;;;13.38;11.38;;;16.90;99.90;;;;;;4934264;29;20118;-75
2021/08/01 02:05:06;;;;;;;13.90;11.88;;;16.90;99.90;;;;;;4932700;29;20082;-75
2021/08/01 02:07:32;;;;;;;12.48;10.88;;;16.80;99.90;;;;;;4927450;29;20039;-75
2021/08/01 02:10:21;;;;;;;13.60;11.43;;;16.80;99.90;;;;;;4931422;29;20019;-74
2021/08/01 02:12:55;;;;;;;13.40;11.75;;;16.70;99.90;;;;;;4927839;29;20112;-74
2021/08/01 02:15:27;;;;;;;14.25;11.68;;;16.70;99.90;;;;;;4933278;29;20031;-74
2021/08/01 02:18:03;;;;;;;15.30;11.85;;;16.70;99.90;;;;;;4928998;29;20035;-75
2021/08/01 02:20:36;;;;;;;12.18;10.93;;;16.60;99.90;;;;;;4917751;29;20036;-76
2021/08/01 02:23:06;;;;;;;13.52;10.98;;;16.50;99.90;;;;;;4928865;29;20036;-74
2021/08/01 02:25:33;;;;;;;11.65;10.45;;;16.50;99.90;;;;;;4934034;29;20455;-75
2021/08/01 02:28:01;;;;;;;13.52;11.27;;;16.50;99.90;;;;;;4929967;29;20098;-75
2021/08/01 02:30:29;;;;;;;12.38;11.07;;;16.50;99.90;;;;;;4930155;29;20020;-74
2021/08/01 02:32:56;;;;;;;12.15;10.68;;;16.50;99.90;;;;;;4930626;29;20024;-75
2021/08/01 02:35:22;;;;;;;19.08;11.05;;;16.50;99.90;;;;;;4929450;29;20030;-76
2021/08/01 02:37:54;;;;;;;12.80;11.18;;;16.50;99.90;;;;;;4932944;29;20087;-76
2021/08/01 02:40:19;;;;;;;13.57;11.10;;;16.50;99.90;;;;;;4933636;29;20511;-74
2021/08/01 02:42:47;;;;;;;12.80;11.43;;;16.50;99.90;;;;;;4927928;29;20039;-74
2021/08/01 02:45:13;;;;;;;12.48;11.18;;;16.50;99.90;;;;;;4934819;29;20559;-74
2021/08/01 02:47:40;;;;;;;12.30;10.90;;;16.50;99.90;;;;;;4926458;29;20062;-76
2021/08/01 02:50:08;;;;;;;12.88;10.60;;;16.50;99.90;;;;;;4919200;29;20036;-75
2021/08/01 02:52:54;;;;;;;15.07;10.75;;;16.50;99.90;;;;;;4932467;29;20020;-76
2021/08/01 02:55:20;;;;;;;15.73;10.35;;;16.50;99.90;;;;;;4935569;29;20118;-77
2021/08/01 02:57:48;;;;;;;12.48;10.25;;;16.50;99.90;;;;;;4933706;29;20028;-76
2021/08/01 03:00:14;;;;;;;11.10;9.95;;;16.50;99.90;;;;;;4929743;29;20386;-74
2021/08/01 03:02:40;;;;;;;11.35;10.15;;;16.40;99.90;;;;;;4933590;29;20035;-76
2021/08/01 03:05:08;;;;;;;11.65;9.57;;;16.40;99.90;;;;;;4933448;29;20016;-75
2021/08/01 03:07:37;;;;;;;11.32;10.13;;;16.40;99.90;;;;;;4922886;29;20392;-74
2021/08/01 03:10:03;;;;;;;11.35;10.18;;;16.40;99.90;;;;;;4933932;29;20020;-76
2021/08/01 03:12:28;;;;;;;12.30;10.40;;;16.30;99.90;;;;;;4933685;29;20082;-74
2021/08/01 03:14:54;;;;;;;11.20;10.10;;;16.40;99.90;;;;;;4933636;29;20031;-76
2021/08/01 03:17:20;;;;;;;11.02;9.85;;;16.40;99.90;;;;;;4924020;29;20032;-74
2021/08/01 03:19:45;;;;;;;9.77;8.77;;;16.30;99.90;;;;;;4931154;29;20138;-75
2021/08/01 03:22:11;;;;;;;10.20;9.20;;;16.30;99.90;;;;;;4925899;29;20040;-76
2021/08/01 03:24:37;;;;;;;11.85;10.00;;;16.40;99.90;;;;;;4932084;29;20040;-74
2021/08/01 03:27:03;;;;;;;11.52;10.15;;;16.30;99.90;;;;;;4928634;29;20126;-75
2021/08/01 03:29:28;;;;;;;11.13;10.02;;;16.30;99.90;;;;;;4929287;29;20060;-74
2021/08/01 03:31:54;;;;;;;10.55;9.45;;;16.30;99.90;;;;;;4930784;29;20169;-74
2021/08/01 03:34:20;;;;;;;12.63;11.18;;;16.30;99.90;;;;;;4935271;29;20042;-76
2021/08/01 03:36:47;;;;;;;11.55;10.35;;;16.20;99.90;;;;;;4931197;29;20027;-74
2021/08/01 03:39:13;;;;;;;12.15;10.88;;;16.30;99.90;;;;;;4928187;29;20020;-74
2021/08/01 03:41:40;;;;;;;11.43;10.30;;;16.30;99.90;;;;;;4926149;29;20043;-74
2021/08/01 03:44:05;;;;;;;12.43;10.15;;;16.30;99.90;;;;;;4932009;29;20031;-74
2021/08/01 03:46:31;;;;;;;12.82;10.73;;;16.40;99.90;;;;;;4925119;29;20038;-74
2021/08/01 03:48:57;;;;;;;13.82;11.50;;;16.50;99.90;;;;;;4930123;29;20031;-76
2021/08/01 03:51:22;;;;;;;12.63;11.23;;;16.60;99.90;;;;;;4925946;29;20056;-75
2021/08/01 03:53:48;;;;;;;12.68;10.43;;;16.60;99.90;;;;;;4929400;29;20200;-74
2021/08/01 03:56:14;;;;;;;13.13;11.65;;;16.70;99.90;;;;;;4925944;29;20481;-74
2021/08/01 03:58:39;;;;;;;11.65;10.52;;;16.80;99.90;;;;;;4920460;29;20036;-75
2021/08/01 04:01:05;;;;;;;11.27;10.18;;;16.90;99.90;;;;;;4926212;29;20036;-73
2021/08/01 04:03:30;;;;;;;12.63;10.80;;;16.90;99.90;;;;;;4928306;29;20031;-75
2021/08/01 04:05:56;;;;;;;12.90;10.63;;;17.00;99.90;;;;;;4928611;29;20058;-75
2021/08/01 04:08:22;;;;;;;11.68;10.48;;;17.20;99.90;;;;;;4928944;29;20365;-76
2021/08/01 04:10:47;;;;;;;12.68;11.25;;;17.20;99.90;;;;;;4926564;29;20431;-77
2021/08/01 04:13:13;;;;;;;15.35;11.32;;;17.20;99.90;;;;;;4934158;29;20051;-74
2021/08/01 04:15:44;;;;;;;11.55;10.35;;;17.20;99.90;;;;;;4925484;29;20023;-76
2021/08/01 04:18:09;;;;;;;12.07;10.77;;;17.20;99.90;;;;;;4923850;29;20038;-75
2021/08/01 04:20:38;;;;;;;12.25;10.60;;;17.40;99.90;;;;;;4929245;29;20035;-74
2021/08/01 04:23:03;;;;;;;12.23;11.00;;;17.40;99.90;;;;;;4928741;29;20024;-75
2021/08/01 04:25:29;;;;;;;12.13;10.70;;;17.50;99.90;;;;;;4934347;29;20116;-76
2021/08/01 04:27:55;;;;;;;11.82;10.63;;;17.60;99.90;;;;;;4931090;29;20036;-76
2021/08/01 04:30:20;;;;;;;12.20;10.95;;;17.70;99.90;;;;;;4929582;29;20046;-74
2021/08/01 04:32:46;;;;;;;11.10;10.00;;;17.80;99.90;;;;;;4930781;29;20036;-75
2021/08/01 04:35:12;;;;;;;13.13;10.75;;;17.80;99.90;;;;;;4928951;29;20034;-73
2021/08/01 04:37:37;;;;;;;13.88;10.18;;;17.80;99.90;;;;;;4930954;29;20028;-74
2021/08/01 04:40:04;;;;;;;13.25;10.43;;;17.90;99.90;;;;;;4928914;29;20024;-76
2021/08/01 04:42:30;;;;;;;12.73;10.35;;;18.00;99.90;;;;;;4923522;29;20467;-74
2021/08/01 04:44:56;;;;;;;12.85;10.70;;;18.10;99.90;;;;;;4920452;29;20075;-74
2021/08/01 04:47:21;;;;;;;12.68;10.60;;;18.10;99.90;;;;;;4923865;29;20555;-75
2021/08/01 04:49:49;;;;;;;12.25;11.05;;;18.10;99.90;;;;;;4930113;29;20064;-74
2021/08/01 04:52:16;;;;;;;12.23;11.02;;;18.20;99.90;;;;;;4924897;29;20537;-76
2021/08/01 04:54:42;;;;;;;14.05;11.73;;;18.30;99.90;;;;;;4930064;29;20076;-74
2021/08/01 04:57:07;;;;;;;12.55;10.88;;;18.30;99.90;;;;;;4925195;29;20095;-74
2021/08/01 04:59:34;;;;;;;13.90;12.60;;;18.40;99.90;;;;;;4924209;29;20027;-75
2021/08/01 05:02:01;;;;;;;12.70;11.43;;;18.40;99.90;;;;;;4927408;29;20028;-76
2021/08/01 05:04:27;;;;;;;16.33;12.27;;;18.50;99.90;;;;;;4931981;29;20439;-74
2021/08/01 05:06:53;;;;;;;13.68;12.27;;;18.60;99.90;;;;;;4928128;29;20032;-74
2021/08/01 05:09:19;;;;;;;12.75;11.43;;;18.70;99.90;;;;;;4928755;29;20403;-74
2021/08/01 05:11:44;;;;;;;16.02;12.43;;;18.80;99.90;;;;;;4929744;29;20554;-74
2021/08/01 05:14:10;;;;;;;14.70;11.77;;;18.90;99.90;;;;;;4921651;29;20179;-76
2021/08/01 05:16:36;;;;;;;13.73;12.27;;;19.00;99.90;;;;;;4929844;29;20490;-76
2021/08/01 05:19:01;;;;;;;15.48;12.38;;;19.10;99.90;;;;;;4927971;29;20457;-75
2021/08/01 05:21:27;;;;;;;15.75;12.68;;;19.30;99.90;;;;;;4928879;29;20118;-76
2021/08/01 05:23:53;;;;;;;15.45;11.55;;;19.40;99.90;;;;;;4925296;29;20502;-76
2021/08/01 05:26:18;;;;;;;12.02;10.82;;;19.40;99.90;;;;;;4918043;29;20194;-76
2021/08/01 05:28:45;;;;;;;12.27;10.88;;;19.40;99.90;;;;;;4927717;29;20032;-76
2021/08/01 05:31:10;;;;;;;13.93;11.70;;;19.50;99.90;;;;;;4931572;29;20036;-76
2021/08/01 05:33:36;;;;;;;15.25;10.40;;;19.50;99.90;;;;;;4927346;29;20040;-77
2021/08/01 05:36:10;;;;;;;10.75;9.70;;;19.60;99.90;;;;;;4923460;29;20476;-76
2021/08/01 05:38:36;;;;;;;12.18;10.90;;;19.70;99.90;;;;;;4927930;29;20032;-76
2021/08/01 05:41:02;;;;;;;13.23;11.75;;;19.80;99.90;;;;;;4928270;29;20028;-76
2021/08/01 05:43:28;;;;;;;13.02;10.18;;;19.90;99.90;;;;;;4933739;29;20031;-76
2021/08/01 05:45:54;;;;;;;14.07;9.60;;;20.10;99.90;;;;;;4932315;29;20436;-77
2021/08/01 05:48:20;;;;;;;10.00;8.85;;;20.20;99.90;;;;;;4927226;29;20044;-76
2021/08/01 05:50:45;;;;;;;11.55;9.10;;;20.30;99.90;;;;;;4927144;29;20415;-76
2021/08/01 05:53:11;;;;;;;10.60;7.85;;;20.40;99.90;;;;;;4928832;29;20110;-76
2021/08/01 05:55:37;;;;;;;11.15;8.32;;;20.50;99.90;;;;;;4927893;29;20048;-76
2021/08/01 05:58:02;;;;;;;9.30;7.28;;;20.70;99.90;;;;;;4930295;29;20502;-77
2021/08/01 06:00:28;;;;;;;9.65;7.65;;;20.70;99.90;;;;;;4931435;29;20035;-76
2021/08/01 06:02:54;;;;;;;9.60;7.75;;;20.70;99.90;;;;;;4929305;29;20096;-77
2021/08/01 06:05:20;;;;;;;8.77;7.32;;;20.80;99.90;;;;;;4927350;29;20043;-76
2021/08/01 06:07:46;;;;;;;11.10;7.10;;;20.90;99.90;;;;;;4926281;29;20040;-76
2021/08/01 06:10:11;;;;;;;10.00;7.05;;;21.00;99.90;;;;;;4924270;29;20500;-77
2021/08/01 06:12:37;;;;;;;9.45;6.30;;;21.10;99.90;;;;;;4923572;29;20043;-76
2021/08/01 06:15:03;;;;;;;10.43;7.15;;;21.30;99.90;;;;;;4929669;29;20394;-77
2021/08/01 06:17:29;;;;;;;7.65;5.35;;;21.50;99.90;;;;;;4930443;29;20419;-76
2021/08/01 06:19:56;;;;;;;8.98;4.97;;;21.60;99.90;;;;;;4932073;29;20076;-76
2021/08/01 06:22:23;;;;;;;8.50;4.63;;;21.80;99.90;;;;;;4935819;29;20028;-76
2021/08/01 06:24:49;;;;;;;12.88;5.03;;;21.90;99.90;;;;;;4936093;29;20023;-76
2021/08/01 06:27:15;;;;;;;11.35;4.07;;;22.00;99.90;;;;;;4931873;29;20082;-76
2021/08/01 06:29:40;;;;;;;6.10;3.85;;;22.10;99.90;;;;;;4930867;29;20027;-77
2021/08/01 06:32:06;;;;;;;6.43;2.95;;;22.10;99.90;;;;;;4931282;29;20072;-77
2021/08/01 06:34:32;;;;;;;7.13;2.53;;;22.20;99.90;;;;;;4937827;29;20035;-77
2021/08/01 06:36:58;;;;;;;6.00;3.10;;;22.30;99.90;;;;;;4933813;29;20483;-76
2021/08/01 06:39:23;;;;;;;4.63;3.65;;;22.30;99.90;;;;;;4931294;29;20519;-76
2021/08/01 06:41:49;;;;;;;7.35;3.03;;;22.40;99.90;;;;;;4931877;29;20028;-77
2021/08/01 06:44:15;;;;;;;10.13;3.28;;;22.60;99.90;;;;;;4934833;29;20043;-76
2021/08/01 06:46:40;;;;;;;5.45;2.65;;;22.70;99.30;;;;;;4932418;29;20063;-77
2021/08/01 06:49:06;;;;;;;8.55;3.17;;;22.80;98.40;;;;;;4931560;29;20114;-77
2021/08/01 06:51:32;;;;;;;13.23;3.33;;;23.00;98.10;;;;;;4930170;29;20054;-77
2021/08/01 06:53:57;;;;;;;4.22;2.25;;;23.10;98.10;;;;;;4935042;29;20114;-76
2021/08/01 06:56:23;;;;;;;7.43;3.17;;;23.20;96.30;;;;;;4932697;29;20118;-77
2021/08/01 06:58:49;;;;;;;4.38;1.88;;;23.40;97.10;;;;;;4933708;29;20036;-77
2021/08/01 07:01:14;;;;;;;3.72;2.47;;;23.50;95.20;;;;;;4933586;29;20035;-75
2021/08/01 07:03:40;;;;;;;8.48;2.40;;;23.50;95.60;;;;;;4930031;29;20042;-76
2021/08/01 07:06:06;;;;;;;8.48;1.77;;;23.50;95.50;;;;;;4933333;29;20066;-76
2021/08/01 07:08:31;;;;;;;3.60;1.92;;;23.60;94.70;;;;;;4932820;29;20031;-76
2021/08/01 07:10:57;;;;;;;5.88;2.85;;;23.60;96.20;;;;;;4931956;29;20020;-76
2021/08/01 07:13:23;;;;;;;4.38;2.20;;;23.70;96.40;;;;;;4936206;29;20546;-76
2021/08/01 07:15:48;;;;;;;4.75;2.72;;;23.60;96.00;;;;;;4932502;29;20071;-76
2021/08/01 07:18:14;;;;;;;2.80;1.92;;;23.70;96.20;;;;;;4932935;29;20168;-76
2021/08/01 07:20:40;;;;;;;4.32;2.40;;;23.70;95.40;;;;;;4932827;29;20059;-76
2021/08/01 07:23:09;;;;;;;4.15;2.13;;;23.70;96.30;;;;;;4931866;29;20066;-76
2021/08/01 07:25:36;;;;;;;5.17;1.80;;;23.70;95.60;;;;;;4934279;29;20492;-76
2021/08/01 07:28:04;;;;;;;4.18;2.17;;;23.80;96.00;;;;;;4935951;29;20341;-76
2021/08/01 07:30:29;;;;;;;3.00;1.50;;;23.90;93.60;;;;;;4932945;29;20059;-76
2021/08/01 07:32:55;;;;;;;4.13;1.45;;;23.90;90.90;;;;;;4934295;29;20495;-76
2021/08/01 07:35:21;;;;;;;4.97;1.23;;;24.00;91.30;;;;;;4931781;29;20031;-76
2021/08/01 07:37:46;;;;;;;3.97;1.58;;;24.00;90.90;;;;;;4933379;29;20036;-75
2021/08/01 07:40:13;;;;;;;3.42;1.27;;;24.00;91.90;;;;;;4934088;29;20035;-75
2021/08/01 07:42:38;;;;;;;2.17;1.42;;;24.10;91.30;;;;;;4932907;29;20035;-75
2021/08/01 07:45:09;;;;;;;5.10;1.52;;;24.00;90.30;;;;;;4933048;29;20046;-76
2021/08/01 07:47:34;;;;;;;2.80;1.40;;;24.00;90.10;;;;;;4931431;29;20039;-76
2021/08/01 07:50:02;;;;;;;3.15;1.45;;;24.00;87.50;;;;;;4933104;29;20040;-75
2021/08/01 07:52:29;;;;;;;4.50;1.30;;;24.00;84.00;;;;;;4935746;29;20020;-75
2021/08/01 07:54:56;;;;;;;3.40;1.15;;;24.00;89.20;;;;;;4934678;29;20091;-75
2021/08/01 07:57:26;;;;;;;2.28;0.82;;;24.10;91.30;;;;;;4931155;29;20147;-76
2021/08/01 07:59:52;;;;;;;8.60;1.15;;;24.10;83.30;;;;;;4930515;29;20063;-76
2021/08/01 08:02:18;;;;;;;1.17;0.50;;;24.20;81.80;;;;;;4931550;29;20089;-76
2021/08/01 08:04:44;;;;;;;1.50;0.80;;;24.20;78.80;;;;;;4934012;29;20028;-76
2021/08/01 08:07:09;;;;;;;1.75;0.50;;;24.20;78.50;;;;;;4934790;29;20051;-76
2021/08/01 08:09:35;;;;;;;4.25;0.70;;;24.20;74.20;;;;;;4933213;29;20348;-76
2021/08/01 08:12:01;;;;;;;5.10;0.93;;;24.30;77.50;;;;;;4932075;29;20027;-76
2021/08/01 08:14:27;;;;;;;5.00;1.23;;;24.30;79.80;;;;;;4931883;29;20119;-76
2021/08/01 08:16:53;;;;;;;3.70;0.77;;;24.30;85.30;;;;;;4931750;29;20035;-76
2021/08/01 08:19:18;;;;;;;3.30;1.00;;;24.30;84.80;;;;;;4934894;29;20032;-76
2021/08/01 08:21:44;;;;;;;2.97;0.90;;;24.20;90.80;;;;;;4931750;29;20499;-76
2021/08/01 08:24:09;;;;;;;4.40;1.23;;;24.10;92.10;;;;;;4931279;29;20439;-76
2021/08/01 08:26:35;;;;;;;5.32;1.05;;;24.00;92.10;;;;;;4931511;29;20099;-77
2021/08/01 08:29:01;;;;;;;5.20;1.30;;;23.90;93.60;;;;;;4931822;29;20027;-76
2021/08/01 08:31:26;;;;;;;3.78;0.93;;;23.80;95.50;;;;;;4934563;29;20491;-76
2021/08/01 08:33:52;;;;;;;1.90;0.90;;;23.70;96.00;;;;;;4931522;29;20030;-75
2021/08/01 08:36:18;;;;;;;7.78;1.85;;;23.70;97.00;;;;;;4931435;29;20016;-78
2021/08/01 08:38:43;;;;;;;8.73;1.73;;;23.70;98.10;;;;;;4929143;29;20030;-76
2021/08/01 08:41:13;;;;;;;7.43;1.40;;;23.70;99.30;;;;;;4931713;29;20113;-76
2021/08/01 08:43:39;;;;;;;9.05;1.65;;;23.80;99.30;;;;;;4933809;29;20023;-76
2021/08/01 08:46:08;;;;;;;6.40;1.50;;;23.90;99.60;;;;;;4931742;29;20043;-76
2021/08/01 08:48:34;;;;;;;4.57;1.67;;;23.90;99.90;;;;;;4931270;29;20115;-76
2021/08/01 08:51:00;;;;;;;4.85;1.75;;;23.90;99.70;;;;;;4930972;29;20063;-76
2021/08/01 08:53:27;;;;;;;1.38;1.13;;;23.90;99.80;;;;;;4930898;29;20028;-76
2021/08/01 08:55:54;;;;;;;3.60;1.50;;;23.80;99.90;;;;;;4931956;29;20555;-76
2021/08/01 08:58:26;;;;;;;12.30;2.13;;;23.80;99.90;;;;;;4934283;29;20048;-76
2021/08/01 09:00:53;;;;;;;9.73;1.98;;;23.90;99.90;;;;;;4932393;29;20039;-75
2021/08/01 09:03:19;;;;;;;5.90;2.22;;;24.00;99.90;;;;;;4930739;29;20460;-75
2021/08/01 09:05:45;;;;;;;4.30;1.70;;;24.00;99.90;;;;;;4930945;29;20028;-75
2021/08/01 09:08:11;;;;;;;2.80;1.00;;;24.10;98.40;;;;;;4932461;29;20111;-75
2021/08/01 09:10:36;;;;;;;2.97;0.80;;;24.30;95.50;;;;;;4933546;29;20099;-74
2021/08/01 09:13:03;;;;;;;3.28;1.20;;;24.50;95.40;;;;;;4932583;29;20058;-75
2021/08/01 09:15:29;;;;;;;3.72;1.00;;;24.60;93.20;;;;;;4931349;29;20491;-75
2021/08/01 09:17:56;;;;;;;3.00;1.23;;;24.70;91.10;;;;;;4929797;29;20552;-75
2021/08/01 09:20:27;;;;;;;2.40;0.80;;;24.90;90.70;;;;;;4931060;29;20468;-75
2021/08/01 09:23:13;;;;;;;6.65;1.80;;;25.00;91.40;;;;;;4932110;29;20032;-75
2021/08/01 09:25:41;;;;;;;4.28;1.90;;;25.10;91.00;;;;;;4929490;29;20043;-75
2021/08/01 09:28:16;;;;;;;4.75;1.48;;;25.20;92.10;;;;;;4932747;29;20024;-75
2021/08/01 09:30:47;;;;;;;6.05;1.83;;;25.30;93.80;;;;;;4929969;29;20513;-75
2021/08/01 09:33:20;;;;;;;4.75;2.15;;;25.40;91.60;;;;;;4929028;29;20480;-73
2021/08/01 09:35:46;;;;;;;3.80;1.48;;;25.50;93.30;;;;;;4928478;29;20035;-74
2021/08/01 09:38:13;;;;;;;6.25;2.03;;;25.70;91.50;;;;;;4931979;29;20058;-74
2021/08/01 09:40:39;;;;;;;3.42;1.67;;;25.80;89.10;;;;;;4932108;29;20015;-73
2021/08/01 09:43:15;;;;;;;3.28;2.08;;;25.90;90.30;;;;;;4929978;29;20027;-74
2021/08/01 09:45:41;;;;;;;2.83;1.88;;;26.00;90.00;;;;;;4929803;29;20228;-74
2021/08/01 09:48:18;;;;;;;3.78;1.63;;;26.10;88.80;;;;;;4932283;29;20502;-74
2021/08/01 09:50:58;;;;;;;4.25;1.77;;;26.10;89.80;;;;;;4931437;29;20406;-79
2021/08/01 09:53:24;;;;;;;5.93;1.70;;;26.10;84.90;;;;;;4935536;29;20023;-74
2021/08/01 09:56:19;;;;;;;4.57;1.70;;;26.10;86.50;;;;;;4935709;29;20066;-74
2021/08/01 09:58:47;;;;;;;3.13;1.67;;;26.10;86.80;;;;;;4933592;29;20873;-74
2021/08/01 10:01:13;;;;;;;6.22;1.90;;;26.20;86.10;;;;;;4937549;29;20099;-75
2021/08/01 10:03:38;;;;;;;5.68;1.75;;;26.20;87.00;;;;;;4932261;29;20467;-76
2021/08/01 10:06:08;;;;;;;5.55;1.98;;;26.20;85.80;;;;;;4931284;29;20521;-76
2021/08/01 10:08:45;;;;;;;3.03;1.50;;;26.30;87.70;;;;;;4931632;29;20028;-76
2021/08/01 10:11:15;;;;;;;1.90;1.50;;;26.20;83.50;;;;;;4930043;29;20146;-76
2021/08/01 10:13:42;;;;;;;3.28;1.60;;;26.20;85.40;;;;;;4933854;29;20034;-76
2021/08/01 10:16:09;;;;;;;14.60;2.30;;;26.10;84.90;;;;;;4935882;29;20511;-75
2021/08/01 10:18:40;;;;;;;24.40;2.47;;;25.90;86.40;;;;;;4933770;29;20036;-76
2021/08/01 10:21:07;;;;;;;3.85;1.40;;;25.80;89.30;;;;;;4965625;28;20443;-76
2021/08/01 10:23:39;;;;;;;3.42;1.80;;;25.70;88.50;;;;;;4934591;29;20372;-76
2021/08/01 10:26:06;;;;;;;2.80;1.88;;;25.60;87.20;;;;;;4932124;29;20051;-76
2021/08/01 10:28:34;;;;;;;4.47;1.73;;;25.50;90.40;;;;;;4933990;29;20028;-76
2021/08/01 10:31:02;;;;;;;2.42;1.42;;;25.30;91.30;;;;;;4914512;29;20070;-76
2021/08/01 10:33:35;;;;;;;3.38;1.70;;;25.30;90.10;;;;;;4933281;29;20059;-76
2021/08/01 10:36:03;;;;;;;2.88;1.65;;;25.20;90.90;;;;;;4925863;28;20103;-76
2021/08/01 10:38:34;;;;;;;1.85;1.15;;;25.10;91.40;;;;;;4930037;29;20495;-76
2021/08/01 10:41:01;;;;;;;5.10;1.40;;;25.00;90.90;;;;;;4935603;28;20432;-76
2021/08/01 10:43:31;;;;;;;2.58;1.33;;;24.90;91.80;;;;;;4936806;29;20039;-76
2021/08/01 10:45:57;;;;;;;27.95;2.75;;;24.80;92.60;;;;;;4929186;29;20087;-76
2021/08/01 10:48:29;;;;;;;12.07;1.92;;;24.70;93.00;;;;;;4930811;29;20039;-76
2021/08/01 10:50:56;;;;;;;2.85;1.33;;;24.70;93.20;;;;;;4933789;29;20486;-76
2021/08/01 10:53:26;;;;;;;4.35;1.73;;;24.60;92.70;;;;;;4931498;28;20399;-76
2021/08/01 10:56:07;;;;;;;4.35;1.50;;;24.50;93.10;;;;;;4933983;28;20102;-76
2021/08/01 10:58:37;;;;;;;2.55;1.45;;;24.50;94.30;;;;;;4929622;29;20101;-75
2021/08/01 11:01:04;;;;;;;;;;;24.60;96.90;;;;;;4936715;29;20431;-73
2021/08/01 11:03:32;;;;;;;4.47;1.33;;;24.70;96.20;;;;;;4930633;28;19915;-75
2021/08/01 11:05:59;;;;;;;3.33;2.00;;;24.80;96.30;;;;;;4926014;29;20054;-74
2021/08/01 11:08:25;;;;;;;4.20;1.50;;;24.90;94.20;;;;;;4925656;29;20031;-74
2021/08/01 11:11:09;;;;;;;4.32;1.60;;;25.10;93.70;;;;;;4942334;29;20028;-75
2021/08/01 11:13:38;;;;;;;2.50;1.40;;;25.20;93.00;;;;;;4931728;29;20039;-74
2021/08/01 11:16:06;;;;;;;2.95;1.48;;;25.30;93.20;;;;;;4935749;29;20031;-76
2021/08/01 11:18:34;;;;;;;2.90;1.17;;;25.50;91.70;;;;;;4932005;29;20518;-75
2021/08/01 11:21:03;;;;;;;4.43;1.30;;;25.50;91.10;;;;;;4937474;29;20032;-75
2021/08/01 11:23:44;;;;;;;;;;;25.60;90.10;;;;;;4933643;28;20386;-76
2021/08/01 11:26:15;;;;;;;3.28;1.27;;;25.60;88.60;;;;;;4930240;29;19929;-76
2021/08/01 11:28:42;;;;;;;2.42;1.30;;;25.60;89.80;;;;;;4922589;28;20495;-75
2021/08/01 11:31:13;;;;;;;2.33;1.35;;;25.60;90.50;;;;;;4932016;29;20022;-75
2021/08/01 11:33:42;;;;;;;3.75;1.23;;;25.70;88.40;;;;;;4934461;28;20028;-76
2021/08/01 11:36:15;;;;;;;2.05;1.13;;;25.70;90.30;;;;;;4927579;29;20479;-75
2021/08/01 11:39:02;;;;;;;5.07;1.40;;;25.70;90.20;;;;;;4935466;29;20110;-76
2021/08/01 11:41:48;;;;;;;5.47;2.22;;;25.70;90.90;;;;;;4922218;29;20059;-74
2021/08/01 11:44:24;;;;;;;6.60;1.48;;;25.60;89.80;;;;;;4924062;29;20043;-74
2021/08/01 11:46:57;;;;;;;3.13;1.58;;;25.60;89.50;;;;;;4933669;29;21050;-74
2021/08/01 11:49:48;;;;;;;2.92;1.23;;;25.50;88.90;;;;;;4934511;28;20114;-74
2021/08/01 11:52:46;;;;;;;3.65;1.35;;;25.40;90.10;;;;;;4931046;29;20368;-75
2021/08/01 11:55:15;;;;;;;3.17;1.30;;;25.20;90.90;;;;;;4926113;29;20043;-74
2021/08/01 11:57:44;;;;;;;4.60;2.20;;;25.00;91.20;;;;;;4926983;28;20392;-74
2021/08/01 12:00:10;;;;;;;7.10;2.40;;;24.90;93.90;;;;;;4921567;29;20028;-74
2021/08/01 12:02:36;;;;;;;4.93;2.05;;;24.80;91.60;;;;;;4927068;29;20028;-73
2021/08/01 12:05:02;;;;;;;3.95;1.45;;;24.70;93.40;;;;;;4942523;29;20020;-74
2021/08/01 12:07:42;;;;;;;2.35;1.35;;;24.60;93.30;;;;;;4932825;29;20050;-73
2021/08/01 12:10:26;;;;;;;1.98;1.23;;;24.50;92.80;;;;;;4938826;29;20039;-73
2021/08/01 12:12:53;;;;;;;5.18;1.85;;;24.50;92.40;;;;;;4923696;28;20032;-74
2021/08/01 12:15:22;;;;;;;4.93;1.52;;;24.50;93.50;;;;;;4928794;29;20162;-74
2021/08/01 12:17:48;;;;;;;5.15;2.05;;;24.50;94.40;;;;;;4939996;28;20038;-74
2021/08/01 12:20:14;;;;;;;5.55;2.33;;;24.60;95.50;;;;;;4935718;29;20080;-74
2021/08/01 12:22:45;;;;;;;5.32;2.30;;;24.70;95.80;;;;;;4939238;29;20055;-73
2021/08/01 12:25:11;;;;;;;3.97;1.83;;;24.60;95.30;;;;;;4930347;29;20357;-73
2021/08/01 12:27:37;;;;;;;3.42;1.48;;;24.50;94.50;;;;;;4934153;28;20043;-73
2021/08/01 12:30:07;;;;;;;4.18;1.80;;;24.40;93.70;;;;;;4928704;29;20506;-75
2021/08/01 12:32:44;;;;;;;3.22;1.25;;;24.20;94.80;;;;;;4926468;29;20104;-73
2021/08/01 12:35:15;;;;;;;5.57;1.80;;;24.10;94.40;;;;;;4934785;29;20220;-74
2021/08/01 12:37:46;;;;;;;4.97;1.75;;;23.90;95.40;;;;;;4934957;29;20034;-74
2021/08/01 12:40:24;;;;;;;4.00;1.83;;;23.90;97.80;;;;;;4940119;29;20043;-74
2021/08/01 12:42:52;;;;;;;8.55;1.90;;;23.70;98.60;;;;;;4927670;28;20020;-74
2021/08/01 12:45:17;;;;;;;5.75;1.85;;;23.60;99.30;;;;;;4935697;29;20020;-73